Terminal Aerodrome Forecast
Issued by NWS

Home | Current Version | Previous Version | Graphics & Text | Print | Product List | Glossary Off
Versions: 1 2 3 4 5 6 7 8 9 10 11 12 13 14 15

058
FTUS45 KGGW 251720
TAFSDY
TAF
KSDY 251720Z 2518/2618 04009KT P6SM BKN023
     FM252100 05009KT P6SM SCT035
     FM261300 07004KT P6SM BKN070=

USA.gov is the U.S. government's official web portal to all federal, state and local government web resources and services.